Time;durP1;ratioP1;P1;durP2;ratioP2;P2;SDS_P1;SDS_P2;PMS_P1;PMS_P2;Temp;Humidity;BMP_temperature;BMP_pressure;BME280_temperature;BME280_humidity;BME280_pressure;Samples;Min_cycle;Max_cycle;Signal;HPM_P1;HPM_P2
2022/06/05 00:02:33;;;;;;;7.33;6.23;;;19.50;99.90;;;;;;5030537;28;20479;-72
2022/06/05 00:05:23;;;;;;;7.30;6.60;;;19.40;99.90;;;;;;5030226;28;20467;-72
2022/06/05 00:08:17;;;;;;;7.53;6.80;;;19.40;99.90;;;;;;5021796;28;20418;-72
2022/06/05 00:11:03;;;;;;;7.50;6.80;;;19.40;99.90;;;;;;5014495;28;20592;-73
2022/06/05 00:13:52;;;;;;;7.57;6.70;;;19.40;99.90;;;;;;5028463;28;20452;-72
2022/06/05 00:16:39;;;;;;;9.97;6.90;;;19.30;99.90;;;;;;5021009;28;20436;-72
2022/06/05 00:19:24;;;;;;;7.97;7.10;;;19.30;99.90;;;;;;5024624;28;20573;-73
2022/06/05 00:22:11;;;;;;;9.37;7.27;;;19.30;99.90;;;;;;5034224;28;20428;-72
2022/06/05 00:24:56;;;;;;;7.10;6.40;;;19.30;99.90;;;;;;5027673;28;20495;-72
2022/06/05 00:27:51;;;;;;;7.70;6.40;;;19.30;99.90;;;;;;5023911;28;21024;-72
2022/06/05 00:30:50;;;;;;;9.70;6.87;;;19.40;99.90;;;;;;5026274;28;20425;-73
2022/06/05 00:33:40;;;;;;;6.80;6.10;;;19.40;99.90;;;;;;5014579;28;20930;-72
2022/06/05 00:36:43;;;;;;;7.00;6.30;;;19.40;99.90;;;;;;5021873;28;20456;-73
2022/06/05 00:39:37;;;;;;;8.00;6.87;;;19.40;99.90;;;;;;5016890;28;20776;-72
2022/06/05 00:42:25;;;;;;;7.40;6.63;;;19.40;99.90;;;;;;5013889;28;20918;-72
2022/06/05 00:45:13;;;;;;;9.10;7.30;;;19.30;99.90;;;;;;5014674;28;20981;-73
2022/06/05 00:47:59;;;;;;;7.30;6.60;;;19.30;99.90;;;;;;5024674;28;20452;-73
2022/06/05 00:50:48;;;;;;;9.10;7.27;;;19.30;99.90;;;;;;5034110;28;20791;-73
2022/06/05 00:53:33;;;;;;;7.63;6.83;;;19.30;99.90;;;;;;5040378;28;20449;-73
2022/06/05 00:56:19;;;;;;;15.00;6.80;;;19.40;99.90;;;;;;5020220;28;20467;-73
2022/06/05 00:59:05;;;;;;;6.80;6.20;;;19.40;99.90;;;;;;5016568;28;20457;-73
2022/06/05 01:01:52;;;;;;;6.87;6.17;;;19.40;99.90;;;;;;5014283;28;20577;-73
2022/06/05 01:04:43;;;;;;;6.87;6.20;;;19.40;99.90;;;;;;5014499;28;20475;-73
2022/06/05 01:07:30;;;;;;;7.40;6.63;;;19.50;99.90;;;;;;5024591;28;20496;-73
2022/06/05 01:10:17;;;;;;;8.20;6.60;;;19.50;99.90;;;;;;5028307;28;20456;-73
2022/06/05 01:13:10;;;;;;;7.40;6.77;;;19.50;99.90;;;;;;5033499;28;20469;-73
2022/06/05 01:16:03;;;;;;;7.33;6.63;;;19.40;99.90;;;;;;5022120;28;21010;-73
2022/06/05 01:18:53;;;;;;;9.40;7.30;;;19.30;99.90;;;;;;5015804;28;20444;-72
2022/06/05 01:22:20;;;;;;;7.60;6.40;;;19.30;99.90;;;;;;5013748;28;20436;-73
2022/06/05 01:25:34;;;;;;;7.60;6.80;;;19.30;99.90;;;;;;5011801;28;20493;-73
2022/06/05 01:28:25;;;;;;;7.47;6.57;;;19.30;99.90;;;;;;5027442;28;20447;-73
2022/06/05 01:31:18;;;;;;;8.60;6.50;;;19.30;99.90;;;;;;5033365;28;20795;-73
2022/06/05 01:34:17;;;;;;;9.43;6.77;;;19.30;99.90;;;;;;5030828;28;20420;-72
2022/06/05 01:37:09;;;;;;;9.93;6.90;;;19.20;99.90;;;;;;5023222;28;20930;-72
2022/06/05 01:40:01;;;;;;;12.10;6.97;;;19.30;99.90;;;;;;5032614;28;20479;-73
2022/06/05 01:42:51;;;;;;;7.47;6.80;;;19.20;99.90;;;;;;5032583;28;20819;-72
2022/06/05 01:45:42;;;;;;;7.73;7.03;;;19.20;99.90;;;;;;5023004;28;20884;-72
2022/06/05 01:48:34;;;;;;;8.47;6.57;;;19.20;99.90;;;;;;5014488;28;20501;-73
2022/06/05 01:51:28;;;;;;;9.33;6.80;;;19.20;99.90;;;;;;5012957;28;20429;-74
2022/06/05 01:54:20;;;;;;;10.07;7.23;;;19.20;99.90;;;;;;5026965;28;20868;-73
2022/06/05 01:57:09;;;;;;;8.67;7.80;;;19.20;99.90;;;;;;5021705;28;20426;-72
2022/06/05 01:59:59;;;;;;;8.23;7.27;;;19.20;99.90;;;;;;5012157;22;20465;-76
2022/06/05 02:02:53;;;;;;;8.73;7.93;;;19.10;99.90;;;;;;4993543;28;20505;-76
2022/06/05 02:05:43;;;;;;;9.03;8.23;;;19.00;99.90;;;;;;4984441;28;20452;-75
2022/06/05 02:08:34;;;;;;;9.83;7.70;;;18.90;99.90;;;;;;4988348;28;20830;-75
2022/06/05 02:11:22;;;;;;;9.00;7.40;;;18.90;99.90;;;;;;4993448;28;20421;-76
2022/06/05 02:14:09;;;;;;;8.77;7.40;;;18.90;99.90;;;;;;4987812;28;20574;-76
2022/06/05 02:16:55;;;;;;;8.63;7.83;;;19.00;99.90;;;;;;4990199;28;20453;-75
2022/06/05 02:19:43;;;;;;;9.13;8.23;;;19.00;99.90;;;;;;4993200;28;20513;-76
2022/06/05 02:22:33;;;;;;;9.87;7.90;;;19.00;99.90;;;;;;4993262;28;20492;-75
2022/06/05 02:25:26;;;;;;;8.70;7.80;;;19.00;99.90;;;;;;4982576;28;20474;-75
2022/06/05 02:28:14;;;;;;;8.67;7.87;;;19.10;99.90;;;;;;4992575;28;20573;-76
2022/06/05 02:31:10;;;;;;;8.07;7.37;;;19.10;99.90;;;;;;4991980;28;20577;-75
2022/06/05 02:34:07;;;;;;;9.17;8.27;;;19.10;99.90;;;;;;4987929;28;20455;-76
2022/06/05 02:37:09;;;;;;;12.00;8.77;;;19.10;99.90;;;;;;4990929;28;20814;-76
2022/06/05 02:40:05;;;;;;;8.63;7.83;;;19.20;99.90;;;;;;4992547;28;20450;-76
2022/06/05 02:42:58;;;;;;;11.43;7.50;;;19.20;99.90;;;;;;4991814;28;20422;-75
2022/06/05 02:45:52;;;;;;;8.60;7.70;;;19.10;99.90;;;;;;4991728;28;20690;-75
2022/06/05 02:48:44;;;;;;;19.00;8.50;;;19.20;99.90;;;;;;4992559;28;20494;-75
2022/06/05 02:51:35;;;;;;;11.30;9.03;;;19.20;99.90;;;;;;4986628;28;20454;-76
2022/06/05 02:54:26;;;;;;;9.10;8.20;;;19.40;99.90;;;;;;4982254;28;20444;-76
2022/06/05 02:57:13;;;;;;;10.13;8.87;;;19.50;99.90;;;;;;4992465;28;20426;-76
2022/06/05 02:59:58;;;;;;;9.50;8.67;;;19.50;99.90;;;;;;4991922;28;20439;-76
2022/06/05 03:05:48;;;;;;;9.10;8.20;;;19.70;99.90;;;;;;4989555;28;20557;-75
2022/06/05 03:08:33;;;;;;;13.90;8.63;;;19.70;99.90;;;;;;4991919;28;20421;-76
2022/06/05 03:11:20;;;;;;;9.00;8.13;;;19.70;99.90;;;;;;4992073;28;20426;-75
2022/06/05 03:14:06;;;;;;;9.73;8.73;;;19.70;99.90;;;;;;4983078;28;20546;-76
2022/06/05 03:16:52;;;;;;;9.03;8.23;;;19.70;99.90;;;;;;4976505;28;20548;-75
2022/06/05 03:19:37;;;;;;;8.87;8.10;;;19.80;99.90;;;;;;4972292;28;20528;-75
2022/06/05 03:22:24;;;;;;;8.43;7.63;;;19.80;99.90;;;;;;4979587;28;20429;-75
2022/06/05 03:25:16;;;;;;;9.20;8.30;;;19.90;99.90;;;;;;4990130;28;20442;-76
2022/06/05 03:28:03;;;;;;;9.20;8.40;;;19.90;99.90;;;;;;4992024;28;20481;-76
2022/06/05 03:30:48;;;;;;;8.60;7.50;;;20.00;99.90;;;;;;4991442;28;20434;-76
2022/06/05 03:33:35;;;;;;;8.83;8.03;;;20.00;99.90;;;;;;4981356;28;20458;-76
2022/06/05 03:36:21;;;;;;;11.30;7.43;;;20.00;99.90;;;;;;4989866;28;20430;-76
2022/06/05 03:39:06;;;;;;;7.60;6.97;;;20.10;99.90;;;;;;4990583;28;20458;-76
2022/06/05 03:41:52;;;;;;;9.80;8.00;;;20.10;99.90;;;;;;4991432;28;20791;-76
2022/06/05 03:44:41;;;;;;;11.60;7.07;;;20.00;99.90;;;;;;4978866;28;20439;-76
2022/06/05 03:47:26;;;;;;;8.17;7.07;;;20.00;99.90;;;;;;4991506;28;20485;-76
2022/06/05 03:50:14;;;;;;;8.23;7.53;;;19.90;99.90;;;;;;4986592;28;20524;-76
2022/06/05 03:53:00;;;;;;;7.60;6.90;;;19.90;99.90;;;;;;4986691;28;20486;-76
2022/06/05 03:55:45;;;;;;;7.40;6.77;;;19.90;99.90;;;;;;4989305;28;20422;-76
2022/06/05 03:58:31;;;;;;;11.70;7.87;;;19.90;99.90;;;;;;4991301;28;20462;-76
2022/06/05 04:01:20;;;;;;;7.90;7.10;;;19.80;99.90;;;;;;4991097;28;20393;-76
2022/06/05 04:04:06;;;;;;;8.03;7.23;;;19.80;99.90;;;;;;4989131;28;20510;-76
2022/06/05 04:06:52;;;;;;;11.03;7.70;;;19.80;99.90;;;;;;4975547;28;20810;-76
2022/06/05 04:09:37;;;;;;;8.07;7.07;;;19.70;99.90;;;;;;4976126;28;20574;-76
2022/06/05 04:12:24;;;;;;;8.10;7.30;;;19.70;99.90;;;;;;4977821;28;20454;-76
2022/06/05 04:15:10;;;;;;;8.80;7.93;;;19.50;99.90;;;;;;4983912;28;20809;-76
2022/06/05 04:17:57;;;;;;;9.77;8.30;;;19.40;99.90;;;;;;4979309;28;20529;-76
2022/06/05 04:20:43;;;;;;;8.20;7.30;;;19.40;99.90;;;;;;4995283;28;20430;-76
2022/06/05 04:23:29;;;;;;;8.23;7.53;;;19.40;99.90;;;;;;4988977;28;20589;-76
2022/06/05 04:26:17;;;;;;;10.93;7.80;;;19.40;99.90;;;;;;4993731;28;20528;-76
2022/06/05 04:29:03;;;;;;;8.97;8.10;;;19.30;99.90;;;;;;4994610;28;20439;-76
2022/06/05 04:31:50;;;;;;;9.03;7.80;;;19.40;99.90;;;;;;4990038;28;20437;-76
2022/06/05 04:34:37;;;;;;;9.37;8.37;;;19.40;99.90;;;;;;4987802;28;20433;-75
2022/06/05 04:37:23;;;;;;;10.67;9.57;;;19.50;99.90;;;;;;4975398;28;20432;-76
2022/06/05 04:40:10;;;;;;;9.00;8.10;;;19.50;99.90;;;;;;4987318;28;20449;-76
2022/06/05 04:42:55;;;;;;;10.00;9.10;;;19.60;99.90;;;;;;4984967;28;20816;-76
2022/06/05 04:45:43;;;;;;;14.00;8.77;;;19.60;99.90;;;;;;4978291;28;20445;-76
2022/06/05 04:48:29;;;;;;;13.07;8.93;;;19.60;99.90;;;;;;4986270;28;20498;-76
2022/06/05 04:51:18;;;;;;;10.90;9.80;;;19.60;99.90;;;;;;4992986;28;20520;-76
2022/06/05 04:54:05;;;;;;;11.13;10.03;;;19.60;99.90;;;;;;4986152;28;20482;-75
2022/06/05 04:56:51;;;;;;;11.20;10.00;;;19.50;99.90;;;;;;4987636;28;20538;-76
2022/06/05 04:59:38;;;;;;;10.37;9.47;;;19.50;99.90;;;;;;4990271;28;20468;-76
2022/06/05 05:02:24;;;;;;;10.53;8.57;;;19.50;99.90;;;;;;4987745;28;20548;-76
2022/06/05 05:05:10;;;;;;;10.13;9.27;;;19.50;99.90;;;;;;4994052;28;20815;-76
2022/06/05 05:07:57;;;;;;;11.53;10.30;;;19.40;99.90;;;;;;4994482;28;20918;-75
2022/06/05 05:10:43;;;;;;;13.17;10.03;;;19.40;99.90;;;;;;4994882;28;20878;-76
2022/06/05 05:13:29;;;;;;;12.80;10.13;;;19.30;99.90;;;;;;4985499;28;20421;-76
2022/06/05 05:16:15;;;;;;;15.03;10.50;;;19.20;99.90;;;;;;4977347;28;20453;-75
2022/06/05 05:19:00;;;;;;;13.83;10.80;;;19.20;99.90;;;;;;4994095;28;20450;-76
2022/06/05 05:21:46;;;;;;;14.33;11.63;;;19.10;99.90;;;;;;4987831;28;20482;-76
2022/06/05 05:24:33;;;;;;;11.00;10.00;;;19.00;99.90;;;;;;4997413;28;20478;-76
2022/06/05 05:27:20;;;;;;;12.60;11.30;;;18.90;99.90;;;;;;4974240;28;20851;-75
2022/06/05 05:30:09;;;;;;;12.60;11.40;;;18.90;99.90;;;;;;4981630;28;20542;-76
2022/06/05 05:32:54;;;;;;;13.90;12.63;;;19.00;99.90;;;;;;4975076;28;20458;-76
2022/06/05 05:35:40;;;;;;;13.30;12.00;;;19.00;99.90;;;;;;4974301;28;20507;-75
2022/06/05 05:38:26;;;;;;;13.30;11.30;;;19.10;99.90;;;;;;4974135;28;20447;-76
2022/06/05 05:44:17;;;;;;;14.20;11.17;;;19.10;99.90;;;;;;4993170;28;20430;-75
2022/06/05 05:47:04;;;;;;;16.83;12.03;;;19.10;99.90;;;;;;4989264;28;20820;-76
2022/06/05 05:49:53;;;;;;;13.13;11.73;;;19.20;99.90;;;;;;4993393;28;20429;-75
2022/06/05 05:52:39;;;;;;;12.00;10.80;;;19.20;99.90;;;;;;4988461;28;20420;-76
2022/06/05 05:55:25;;;;;;;12.73;11.53;;;19.30;99.90;;;;;;4992851;28;20423;-76
2022/06/05 05:58:12;;;;;;;13.40;12.00;;;19.20;99.90;;;;;;4993476;28;20422;-76
2022/06/05 06:01:01;;;;;;;12.57;11.37;;;19.20;99.90;;;;;;4985809;28;20459;-76
2022/06/05 06:03:47;;;;;;;11.07;9.80;;;19.20;99.90;;;;;;4973955;28;20430;-76
2022/06/05 06:06:35;;;;;;;11.83;10.00;;;19.30;99.90;;;;;;4973499;28;20470;-76
2022/06/05 06:09:20;;;;;;;12.10;10.50;;;19.40;99.90;;;;;;4973966;28;20450;-75
2022/06/05 06:12:07;;;;;;;10.40;9.50;;;19.40;99.90;;;;;;4981237;28;21030;-75
2022/06/05 06:14:54;;;;;;;11.07;10.00;;;19.50;99.90;;;;;;4978737;28;20507;-76
2022/06/05 06:17:40;;;;;;;10.37;8.80;;;19.50;99.90;;;;;;4993062;28;20439;-76
2022/06/05 06:20:27;;;;;;;10.33;9.43;;;19.40;99.90;;;;;;4990375;28;20481;-75
2022/06/05 06:23:12;;;;;;;10.37;9.40;;;19.50;99.90;;;;;;4994493;28;20656;-76
2022/06/05 06:25:58;;;;;;;12.13;10.90;;;19.40;99.90;;;;;;4991461;28;20763;-76
2022/06/05 06:28:44;;;;;;;10.30;9.50;;;19.30;99.90;;;;;;4991597;28;20482;-76
2022/06/05 06:31:31;;;;;;;10.80;9.80;;;19.30;99.90;;;;;;4979700;28;20450;-76
2022/06/05 06:34:16;;;;;;;10.30;9.13;;;19.20;99.90;;;;;;4989622;28;20400;-76
2022/06/05 06:37:02;;;;;;;12.40;9.03;;;19.20;99.90;;;;;;4992480;28;20954;-76
2022/06/05 06:39:48;;;;;;;10.27;9.37;;;19.20;99.90;;;;;;4990646;28;20973;-76
2022/06/05 06:42:33;;;;;;;9.57;8.33;;;19.20;99.90;;;;;;4991760;28;20430;-75
2022/06/05 06:45:19;;;;;;;12.33;9.47;;;19.10;99.90;;;;;;4987168;28;20788;-76
2022/06/05 06:48:07;;;;;;;9.27;8.37;;;19.10;99.90;;;;;;4992001;28;20449;-76
2022/06/05 06:50:53;;;;;;;10.17;9.27;;;19.00;99.90;;;;;;4981611;28;20953;-76
2022/06/05 06:53:41;;;;;;;9.60;8.70;;;19.10;99.90;;;;;;4994988;28;20529;-76
2022/06/05 06:56:29;;;;;;;11.83;7.90;;;19.00;99.90;;;;;;4991904;28;20413;-76
2022/06/05 06:59:15;;;;;;;9.53;8.63;;;19.00;99.90;;;;;;4987265;28;20463;-76
2022/06/05 07:02:00;;;;;;;9.87;9.07;;;19.00;99.90;;;;;;4973358;28;20416;-75
2022/06/05 07:04:48;;;;;;;8.70;7.90;;;19.10;99.90;;;;;;4972444;28;20471;-75
2022/06/05 07:07:34;;;;;;;10.20;9.30;;;19.10;99.90;;;;;;4972875;28;20478;-75
2022/06/05 07:10:19;;;;;;;8.83;8.13;;;19.10;99.90;;;;;;4977130;28;20857;-75
2022/06/05 07:13:05;;;;;;;9.33;8.43;;;19.10;99.90;;;;;;4983380;28;20422;-75
2022/06/05 07:15:51;;;;;;;12.07;8.20;;;19.20;99.90;;;;;;4992425;28;20400;-75
2022/06/05 07:18:37;;;;;;;8.87;8.07;;;19.20;99.90;;;;;;4992427;28;20416;-75
2022/06/05 07:21:26;;;;;;;8.43;7.63;;;19.30;99.90;;;;;;4973298;28;20447;-75
2022/06/05 07:24:11;;;;;;;10.00;7.70;;;19.40;99.90;;;;;;4985105;28;20393;-75
2022/06/05 07:26:57;;;;;;;9.23;8.33;;;19.40;99.90;;;;;;4990657;28;20480;-75
2022/06/05 07:29:43;;;;;;;8.80;7.97;;;19.50;99.90;;;;;;4972211;28;20449;-75
2022/06/05 07:32:28;;;;;;;9.13;8.30;;;19.40;99.90;;;;;;4972367;28;20502;-75
2022/06/05 07:35:15;;;;;;;10.37;8.37;;;19.30;99.90;;;;;;4972146;28;20405;-75
2022/06/05 07:38:02;;;;;;;8.60;7.80;;;19.30;99.90;;;;;;4991689;28;20405;-75
2022/06/05 07:40:47;;;;;;;8.90;8.10;;;19.30;99.90;;;;;;4977018;28;20467;-75
2022/06/05 07:43:33;;;;;;;9.00;8.20;;;19.30;99.90;;;;;;4986137;28;20424;-75
2022/06/05 07:46:20;;;;;;;8.73;7.93;;;19.40;99.90;;;;;;4991184;28;20425;-75
2022/06/05 07:49:06;;;;;;;9.77;8.70;;;19.40;99.90;;;;;;4987910;28;20518;-75
2022/06/05 07:54:56;;;;;;;9.80;8.90;;;19.50;99.90;;;;;;4992083;28;20405;-75
2022/06/05 07:57:42;;;;;;;12.73;8.33;;;19.50;99.90;;;;;;4989745;28;20450;-75
2022/06/05 08:00:29;;;;;;;10.40;9.50;;;19.60;99.90;;;;;;4992603;22;21027;-71
2022/06/05 08:03:14;;;;;;;8.87;8.07;;;19.70;99.90;;;;;;4971601;28;20830;-71
2022/06/05 08:06:00;;;;;;;12.33;8.23;;;19.80;99.90;;;;;;4971876;28;20430;-73
2022/06/05 08:08:46;;;;;;;12.30;8.93;;;19.80;99.90;;;;;;4972876;28;20478;-73
2022/06/05 08:11:34;;;;;;;9.10;8.20;;;19.80;99.90;;;;;;4986698;28;20913;-72
2022/06/05 08:14:19;;;;;;;11.93;8.60;;;19.80;99.90;;;;;;4990823;28;20427;-74
2022/06/05 08:17:06;;;;;;;11.30;9.43;;;19.80;99.90;;;;;;4991267;28;20430;-72
2022/06/05 08:19:52;;;;;;;9.17;8.37;;;19.80;99.90;;;;;;4979844;28;20857;-72
2022/06/05 08:22:38;;;;;;;9.57;8.57;;;19.80;99.90;;;;;;4986176;28;20437;-72
2022/06/05 08:25:24;;;;;;;9.00;8.20;;;19.80;99.90;;;;;;4989730;28;20979;-71
2022/06/05 08:28:11;;;;;;;9.20;7.90;;;19.60;99.90;;;;;;4990991;28;20470;-71
2022/06/05 08:30:57;;;;;;;8.00;7.20;;;19.60;99.90;;;;;;4988553;28;20520;-74
2022/06/05 08:33:42;;;;;;;9.50;7.57;;;19.60;99.90;;;;;;4990603;28;20426;-72
2022/06/05 08:36:28;;;;;;;8.07;7.30;;;19.70;99.90;;;;;;4990710;28;20489;-71
2022/06/05 08:42:27;;;;;;;8.30;7.20;;;19.80;99.90;;;;;;4989908;28;20401;-71
2022/06/05 08:45:21;;;;;;;8.13;6.83;;;19.80;99.90;;;;;;4991053;28;20542;-72
2022/06/05 08:48:12;;;;;;;7.53;6.83;;;19.90;99.90;;;;;;4990150;28;20469;-71
2022/06/05 08:51:11;;;;;;;8.07;7.30;;;20.00;99.90;;;;;;4975005;28;20415;-71
2022/06/05 08:54:01;;;;;;;9.80;7.33;;;19.90;99.90;;;;;;4998368;28;20426;-72
2022/06/05 08:56:49;;;;;;;8.30;7.50;;;19.90;99.90;;;;;;4994420;28;20868;-72
2022/06/05 08:59:44;;;;;;;8.53;7.73;;;19.90;99.90;;;;;;4985295;28;20495;-72
2022/06/05 09:02:42;;;;;;;8.30;7.50;;;19.90;99.90;;;;;;4992408;28;20497;-72
2022/06/05 09:05:31;;;;;;;11.10;7.40;;;19.80;99.90;;;;;;4993933;28;20450;-72
2022/06/05 09:08:19;;;;;;;8.83;7.93;;;19.80;99.90;;;;;;4990430;28;20565;-72
2022/06/05 09:11:08;;;;;;;10.07;6.73;;;19.90;99.90;;;;;;4990282;28;20423;-72
2022/06/05 09:14:06;;;;;;;6.70;6.10;;;19.90;99.90;;;;;;4993352;28;20417;-71
2022/06/05 09:16:55;;;;;;;10.27;6.93;;;19.90;99.90;;;;;;4993692;28;20913;-73
2022/06/05 09:19:43;;;;;;;8.50;7.50;;;20.00;99.90;;;;;;4984888;28;20478;-72
2022/06/05 09:22:36;;;;;;;11.17;7.87;;;20.00;99.90;;;;;;4981909;28;20858;-71
2022/06/05 09:25:39;;;;;;;9.00;7.93;;;20.10;99.90;;;;;;4987257;28;20640;-71
2022/06/05 09:29:03;;;;;;;7.77;7.07;;;20.30;99.90;;;;;;4988224;28;20917;-71
2022/06/05 09:32:03;;;;;;;8.23;7.53;;;20.30;99.90;;;;;;4990576;28;20494;-69
2022/06/05 09:34:53;;;;;;;11.63;7.87;;;20.30;99.90;;;;;;4991504;28;20413;-70
2022/06/05 09:37:45;;;;;;;9.43;6.27;;;20.50;99.90;;;;;;4987240;28;20537;-70
2022/06/05 09:40:34;;;;;;;6.87;5.60;;;20.70;99.90;;;;;;4981418;28;20797;-71
2022/06/05 09:43:42;;;;;;;8.20;6.63;;;20.90;99.90;;;;;;4993020;28;20430;-71
2022/06/05 09:46:57;;;;;;;9.60;6.27;;;21.20;99.90;;;;;;4993532;28;20394;-71
2022/06/05 09:49:46;;;;;;;7.90;6.03;;;21.60;99.90;;;;;;4986207;28;20983;-72
2022/06/05 09:52:33;;;;;;;6.87;6.17;;;21.80;99.90;;;;;;4988552;28;20947;-71
2022/06/05 09:55:22;;;;;;;7.00;6.30;;;21.80;99.90;;;;;;4987462;28;20970;-72
2022/06/05 09:58:28;;;;;;;9.40;7.90;;;21.80;99.90;;;;;;4986709;28;20960;-71
2022/06/05 10:01:28;;;;;;;10.90;8.73;;;21.80;99.90;;;;;;4972976;28;20574;-71
2022/06/05 10:04:14;;;;;;;10.03;8.10;;;21.60;99.90;;;;;;4973483;28;20427;-72
2022/06/05 10:07:06;;;;;;;10.80;8.10;;;21.50;99.90;;;;;;4986312;28;20506;-71
2022/06/05 10:09:53;;;;;;;9.80;8.80;;;21.50;99.90;;;;;;4988767;28;20449;-71
2022/06/05 10:12:54;;;;;;;10.20;8.67;;;21.70;99.90;;;;;;4988608;28;20438;-71
2022/06/05 10:15:47;;;;;;;11.20;7.83;;;21.80;99.90;;;;;;4991923;28;20428;-71
2022/06/05 10:18:41;;;;;;;10.10;8.50;;;22.00;99.90;;;;;;4982776;28;20448;-71
2022/06/05 10:21:36;;;;;;;9.80;8.00;;;22.00;99.90;;;;;;4984978;28;21038;-71
2022/06/05 10:24:30;;;;;;;9.17;8.27;;;22.20;99.90;;;;;;4984520;28;20445;-71
2022/06/05 10:27:19;;;;;;;9.00;8.10;;;22.20;99.90;;;;;;4986345;28;20980;-71
2022/06/05 10:30:07;;;;;;;11.23;8.23;;;22.20;99.90;;;;;;4986808;28;20473;-71
2022/06/05 10:32:58;;;;;;;9.20;8.30;;;22.30;99.90;;;;;;4981860;28;21000;-72
2022/06/05 10:35:51;;;;;;;8.97;8.07;;;22.50;99.90;;;;;;4985199;28;20462;-71
2022/06/05 10:38:42;;;;;;;9.07;8.17;;;22.90;99.90;;;;;;4983606;28;22482;-71
2022/06/05 10:41:35;;;;;;;8.50;7.30;;;23.10;99.90;;;;;;4989789;28;20967;-71
2022/06/05 10:44:28;;;;;;;12.00;9.43;;;23.20;99.90;;;;;;4987933;28;20450;-74
2022/06/05 10:47:18;;;;;;;11.40;7.87;;;23.30;99.90;;;;;;4982381;28;20561;-71
2022/06/05 10:50:08;;;;;;;8.53;7.63;;;23.50;99.90;;;;;;4988049;28;20850;-70
2022/06/05 10:52:59;;;;;;;9.83;7.00;;;23.70;99.90;;;;;;4998023;28;20421;-71
2022/06/05 10:55:59;;;;;;;8.90;7.70;;;24.00;99.90;;;;;;4987992;28;20513;-70
2022/06/05 10:58:54;;;;;;;9.37;6.70;;;24.10;99.90;;;;;;4988855;28;20454;-71
2022/06/05 11:01:57;;;;;;;10.57;7.27;;;24.00;99.90;;;;;;4987380;28;20487;-71
2022/06/05 11:04:50;;;;;;;9.33;7.00;;;24.20;99.90;;;;;;4988229;28;20445;-71
2022/06/05 11:07:48;;;;;;;8.80;6.50;;;24.20;99.90;;;;;;4982150;28;20533;-71
2022/06/05 11:14:02;;;;;;;6.77;6.07;;;24.40;99.90;;;;;;4987145;28;20499;-71
2022/06/05 11:16:55;;;;;;;9.90;7.90;;;24.30;99.90;;;;;;4985580;28;21119;-71
2022/06/05 11:19:49;;;;;;;20.10;7.20;;;24.40;99.90;;;;;;4985686;28;20548;-71
2022/06/05 11:22:37;;;;;;;11.80;8.00;;;24.50;99.90;;;;;;4998360;28;20986;-71
2022/06/05 11:25:27;;;;;;;9.60;8.00;;;24.60;99.90;;;;;;4984875;28;20809;-70
2022/06/05 11:28:43;;;;;;;9.53;7.67;;;24.60;99.90;;;;;;4987547;28;20613;-72
2022/06/05 11:31:40;;;;;;;8.07;6.90;;;24.50;99.90;;;;;;4989235;28;20434;-71
2022/06/05 11:34:42;;;;;;;7.80;6.50;;;24.30;99.90;;;;;;4983914;28;20459;-71
2022/06/05 11:37:45;;;;;;;9.73;6.43;;;24.20;99.90;;;;;;4986068;28;20989;-72
2022/06/05 11:40:45;;;;;;;11.30;7.20;;;24.10;99.90;;;;;;4987012;28;20521;-71
2022/06/05 11:43:34;;;;;;;12.70;6.60;;;24.10;99.90;;;;;;4983197;28;20558;-71
2022/06/05 11:46:26;;;;;;;12.43;7.40;;;23.80;99.90;;;;;;4981179;28;20507;-70
2022/06/05 11:49:16;;;;;;;7.10;6.40;;;23.50;99.90;;;;;;4981882;28;20626;-71
2022/06/05 11:52:12;;;;;;;8.23;7.53;;;23.40;99.90;;;;;;4991775;28;20454;-71
2022/06/05 11:55:06;;;;;;;9.10;7.10;;;23.40;99.90;;;;;;4986765;28;21013;-72
2022/06/05 11:58:01;;;;;;;7.67;6.90;;;23.40;99.90;;;;;;4987350;28;20417;-72
2022/06/05 12:00:53;;;;;;;10.13;7.83;;;23.50;99.90;;;;;;4983764;28;20462;-71
2022/06/05 12:03:44;;;;;;;9.63;7.33;;;23.60;99.90;;;;;;4988985;28;20470;-72
2022/06/05 12:06:37;;;;;;;8.80;7.73;;;23.50;99.90;;;;;;4986434;28;20450;-73
2022/06/05 12:09:27;;;;;;;10.40;7.90;;;23.50;99.90;;;;;;4981781;28;20610;-71
2022/06/05 12:12:18;;;;;;;10.60;8.73;;;23.50;99.90;;;;;;4989165;28;20446;-72
2022/06/05 12:15:15;;;;;;;9.00;8.20;;;23.60;99.90;;;;;;4983745;28;20445;-71
2022/06/05 12:18:07;;;;;;;9.90;8.90;;;23.60;99.90;;;;;;4980544;28;20787;-72
2022/06/05 12:20:57;;;;;;;12.50;8.80;;;23.50;99.90;;;;;;4985950;28;20425;-72
2022/06/05 12:23:51;;;;;;;10.13;8.50;;;23.50;99.90;;;;;;4996194;28;20589;-72
2022/06/05 12:26:46;;;;;;;12.53;8.30;;;23.40;99.90;;;;;;4985370;28;20971;-72
2022/06/05 12:29:39;;;;;;;11.13;7.47;;;23.40;99.90;;;;;;4988895;28;20473;-71
2022/06/05 12:32:36;;;;;;;9.57;8.20;;;23.40;99.90;;;;;;4987141;28;20458;-72
2022/06/05 12:35:29;;;;;;;8.90;7.93;;;23.40;99.90;;;;;;4983505;28;20991;-72
2022/06/05 12:38:31;;;;;;;10.67;9.20;;;23.40;99.90;;;;;;4981146;28;22113;-73
2022/06/05 12:41:21;;;;;;;16.03;11.00;;;23.30;99.90;;;;;;4991556;28;20426;-72
2022/06/05 12:44:24;;;;;;;27.67;12.70;;;23.00;99.90;;;;;;4991785;28;20588;-73
2022/06/05 12:47:19;;;;;;;28.77;13.50;;;22.60;99.90;;;;;;4992072;28;20457;-71
2022/06/05 12:50:18;;;;;;;21.37;11.37;;;21.90;99.90;;;;;;4975480;28;20829;-72
2022/06/05 12:53:14;;;;;;;19.10;10.97;;;21.50;99.90;;;;;;4990965;28;20489;-71
2022/06/05 12:56:21;;;;;;;19.10;11.63;;;21.00;99.90;;;;;;4991048;28;20540;-72
2022/06/05 12:59:17;;;;;;;12.97;11.10;;;21.00;99.90;;;;;;4987692;28;20470;-73
2022/06/05 13:02:25;;;;;;;14.60;9.70;;;21.10;99.90;;;;;;4990529;28;20477;-71
2022/06/05 13:05:26;;;;;;;10.50;8.87;;;21.20;99.90;;;;;;4985326;28;20430;-71
2022/06/05 13:08:17;;;;;;;19.47;9.40;;;21.40;99.90;;;;;;4990636;28;20537;-72
2022/06/05 13:11:09;;;;;;;9.10;7.90;;;21.60;99.90;;;;;;4992456;28;20453;-71
2022/06/05 13:14:05;;;;;;;23.67;9.63;;;21.70;99.90;;;;;;4989762;28;20462;-73
2022/06/05 13:17:08;;;;;;;11.93;9.57;;;21.70;99.90;;;;;;4990922;28;20492;-72
2022/06/05 13:19:59;;;;;;;18.57;9.50;;;21.80;99.90;;;;;;4992175;28;20597;-72
2022/06/05 13:22:50;;;;;;;9.67;8.77;;;21.80;99.90;;;;;;4987778;28;20432;-73
2022/06/05 13:25:50;;;;;;;16.40;9.33;;;21.70;99.90;;;;;;4992015;28;20837;-72
2022/06/05 13:28:43;;;;;;;14.57;9.40;;;21.70;99.90;;;;;;4990708;28;20473;-72
2022/06/05 13:31:35;;;;;;;14.57;10.87;;;21.60;99.90;;;;;;4990688;28;21259;-72
2022/06/05 13:34:31;;;;;;;18.80;10.73;;;21.60;99.90;;;;;;4991207;28;20805;-74
2022/06/05 13:37:25;;;;;;;21.53;11.70;;;21.50;99.90;;;;;;4992124;28;20438;-72
2022/06/05 13:40:18;;;;;;;15.30;12.90;;;21.50;99.90;;;;;;4991617;28;20818;-72
2022/06/05 13:43:05;;;;;;;22.73;12.83;;;21.50;99.90;;;;;;4990698;28;20454;-71
2022/06/05 13:46:16;;;;;;;15.37;12.50;;;21.40;99.90;;;;;;4971972;28;20423;-73
2022/06/05 13:49:09;;;;;;;18.27;12.97;;;21.40;99.90;;;;;;4971909;28;20610;-72
2022/06/05 13:52:03;;;;;;;13.80;11.90;;;21.40;99.90;;;;;;4974920;28;20427;-73
2022/06/05 13:54:52;;;;;;;15.37;11.50;;;21.50;99.90;;;;;;4993212;28;20761;-71
2022/06/05 13:57:49;;;;;;;14.50;11.77;;;21.50;99.90;;;;;;4989862;28;20601;-72
2022/06/05 14:00:46;;;;;;;13.77;11.60;;;21.60;99.90;;;;;;4971823;28;20459;-71
2022/06/05 14:03:42;;;;;;;12.53;11.23;;;21.70;99.90;;;;;;4972020;28;20478;-72
2022/06/05 14:06:38;;;;;;;16.10;11.23;;;21.80;99.90;;;;;;4971538;28;20423;-72
2022/06/05 14:09:39;;;;;;;18.23;9.73;;;22.10;99.90;;;;;;4977610;28;21073;-72
2022/06/05 14:12:28;;;;;;;8.33;5.77;;;22.30;99.90;;;;;;4990279;28;20783;-71
2022/06/05 14:15:23;;;;;;;8.03;6.30;;;22.40;99.90;;;;;;4987542;28;20799;-73
2022/06/05 14:18:23;;;;;;;7.07;5.00;;;22.60;99.90;;;;;;4983594;28;20450;-71
2022/06/05 14:21:15;;;;;;;6.50;4.80;;;22.60;99.90;;;;;;4976651;28;20542;-71
2022/06/05 14:24:06;;;;;;;6.87;4.90;;;22.80;99.90;;;;;;4996527;28;20438;-72
2022/06/05 14:26:55;;;;;;;5.33;4.83;;;22.80;99.90;;;;;;4990879;28;20443;-71
2022/06/05 14:29:45;;;;;;;7.90;4.20;;;22.80;99.90;;;;;;4990412;28;20478;-72
2022/06/05 14:32:34;;;;;;;6.83;4.37;;;22.90;99.90;;;;;;4989470;28;20513;-71
2022/06/05 14:35:32;;;;;;;8.40;4.50;;;22.90;99.90;;;;;;4986581;28;20454;-71
2022/06/05 14:38:22;;;;;;;7.53;4.40;;;22.90;99.90;;;;;;4984762;28;20797;-71
2022/06/05 14:41:15;;;;;;;7.30;3.90;;;22.90;99.90;;;;;;4990116;28;20423;-74
2022/06/05 14:44:13;;;;;;;7.00;4.27;;;22.80;99.90;;;;;;4988919;28;20427;-72
2022/06/05 14:47:04;;;;;;;4.97;4.10;;;22.80;99.90;;;;;;4983286;28;20526;-71
2022/06/05 14:49:56;;;;;;;7.30;3.83;;;22.70;99.90;;;;;;4990736;28;20482;-71
2022/06/05 14:52:49;;;;;;;4.83;3.60;;;22.70;99.90;;;;;;4997097;28;20524;-72
2022/06/05 14:58:54;;;;;;;8.70;3.10;;;22.40;99.90;;;;;;4970497;28;20857;-72
2022/06/05 15:01:47;;;;;;;8.23;2.40;;;21.50;99.90;;;;;;4982933;28;20446;-71